sensor_id;sensor_type;location;lat;lon;timestamp;P1;durP1;ratioP1;P2;durP2;ratioP2
44824;SDS011;30542;47.928;2.138;2022-09-01T00:02:43;2.50;;;2.30;;
44824;SDS011;30542;47.928;2.138;2022-09-01T00:07:44;2.42;;;2.33;;
44824;SDS011;30542;47.928;2.138;2022-09-01T00:12:44;1.95;;;1.85;;
44824;SDS011;30542;47.928;2.138;2022-09-01T00:17:44;1.70;;;1.60;;
44824;SDS011;30542;47.928;2.138;2022-09-01T00:22:45;2.20;;;2.10;;
44824;SDS011;30542;47.928;2.138;2022-09-01T00:27:46;1.90;;;1.80;;
44824;SDS011;30542;47.928;2.138;2022-09-01T00:32:48;2.03;;;1.83;;
44824;SDS011;30542;47.928;2.138;2022-09-01T00:37:48;2.03;;;1.80;;
44824;SDS011;30542;47.928;2.138;2022-09-01T00:42:49;2.22;;;2.13;;
44824;SDS011;30542;47.928;2.138;2022-09-01T00:47:49;2.43;;;2.33;;
44824;SDS011;30542;47.928;2.138;2022-09-01T00:52:50;2.23;;;2.00;;
44824;SDS011;30542;47.928;2.138;2022-09-01T00:57:54;4.10;;;1.88;;
44824;SDS011;30542;47.928;2.138;2022-09-01T01:02:55;2.15;;;2.05;;
44824;SDS011;30542;47.928;2.138;2022-09-01T01:07:55;2.17;;;2.08;;
44824;SDS011;30542;47.928;2.138;2022-09-01T01:12:56;1.80;;;1.67;;
44824;SDS011;30542;47.928;2.138;2022-09-01T01:18:00;2.28;;;2.08;;
44824;SDS011;30542;47.928;2.138;2022-09-01T01:23:47;2.28;;;2.10;;
44824;SDS011;30542;47.928;2.138;2022-09-01T01:28:24;2.03;;;1.88;;
44824;SDS011;30542;47.928;2.138;2022-09-01T01:33:35;1.50;;;1.40;;
44824;SDS011;30542;47.928;2.138;2022-09-01T01:38:42;2.15;;;2.05;;
44824;SDS011;30542;47.928;2.138;2022-09-01T01:43:46;1.73;;;1.60;;
44824;SDS011;30542;47.928;2.138;2022-09-01T01:48:50;1.73;;;1.63;;
44824;SDS011;30542;47.928;2.138;2022-09-01T01:53:51;1.98;;;1.88;;
44824;SDS011;30542;47.928;2.138;2022-09-01T01:58:52;2.10;;;1.92;;
44824;SDS011;30542;47.928;2.138;2022-09-01T02:03:55;2.10;;;2.00;;
44824;SDS011;30542;47.928;2.138;2022-09-01T02:08:56;2.03;;;1.92;;
44824;SDS011;30542;47.928;2.138;2022-09-01T02:13:58;2.28;;;2.08;;
44824;SDS011;30542;47.928;2.138;2022-09-01T02:19:00;2.17;;;1.98;;
44824;SDS011;30542;47.928;2.138;2022-09-01T02:24:04;1.98;;;1.88;;
44824;SDS011;30542;47.928;2.138;2022-09-01T02:29:08;1.90;;;1.80;;
44824;SDS011;30542;47.928;2.138;2022-09-01T02:34:17;1.92;;;1.83;;
44824;SDS011;30542;47.928;2.138;2022-09-01T02:39:20;1.98;;;1.88;;
44824;SDS011;30542;47.928;2.138;2022-09-01T02:44:26;2.15;;;2.05;;
44824;SDS011;30542;47.928;2.138;2022-09-01T02:49:28;1.90;;;1.80;;
44824;SDS011;30542;47.928;2.138;2022-09-01T02:54:29;2.15;;;2.05;;
44824;SDS011;30542;47.928;2.138;2022-09-01T02:59:31;2.13;;;2.03;;
44824;SDS011;30542;47.928;2.138;2022-09-01T03:04:34;2.50;;;2.30;;
44824;SDS011;30542;47.928;2.138;2022-09-01T03:09:34;2.15;;;2.05;;
44824;SDS011;30542;47.928;2.138;2022-09-01T03:14:35;1.95;;;1.83;;
44824;SDS011;30542;47.928;2.138;2022-09-01T03:19:36;2.37;;;2.17;;
44824;SDS011;30542;47.928;2.138;2022-09-01T03:24:43;1.93;;;1.83;;
44824;SDS011;30542;47.928;2.138;2022-09-01T03:29:43;2.27;;;2.13;;
44824;SDS011;30542;47.928;2.138;2022-09-01T03:34:43;1.60;;;1.50;;
44824;SDS011;30542;47.928;2.138;2022-09-01T03:39:44;2.20;;;2.10;;
44824;SDS011;30542;47.928;2.138;2022-09-01T03:44:45;2.03;;;1.90;;
44824;SDS011;30542;47.928;2.138;2022-09-01T03:49:47;2.13;;;2.03;;
44824;SDS011;30542;47.928;2.138;2022-09-01T03:54:48;2.30;;;2.20;;
44824;SDS011;30542;47.928;2.138;2022-09-01T03:59:52;2.15;;;1.95;;
44824;SDS011;30542;47.928;2.138;2022-09-01T04:04:53;2.03;;;1.80;;
44824;SDS011;30542;47.928;2.138;2022-09-01T04:09:53;2.27;;;2.17;;
44824;SDS011;30542;47.928;2.138;2022-09-01T04:14:54;1.40;;;1.30;;
44824;SDS011;30542;47.928;2.138;2022-09-01T04:19:55;2.42;;;2.22;;
44824;SDS011;30542;47.928;2.138;2022-09-01T04:24:56;2.05;;;1.95;;
44824;SDS011;30542;47.928;2.138;2022-09-01T04:29:58;2.13;;;1.98;;
44824;SDS011;30542;47.928;2.138;2022-09-01T04:35:00;2.08;;;1.98;;
44824;SDS011;30542;47.928;2.138;2022-09-01T04:40:01;1.98;;;1.85;;
44824;SDS011;30542;47.928;2.138;2022-09-01T04:45:03;1.70;;;1.60;;
44824;SDS011;30542;47.928;2.138;2022-09-01T04:50:05;2.35;;;2.25;;
44824;SDS011;30542;47.928;2.138;2022-09-01T04:55:13;2.00;;;1.90;;
44824;SDS011;30542;47.928;2.138;2022-09-01T05:00:17;2.40;;;1.85;;
44824;SDS011;30542;47.928;2.138;2022-09-01T05:05:22;2.35;;;1.83;;
44824;SDS011;30542;47.928;2.138;2022-09-01T05:10:22;2.05;;;1.95;;
44824;SDS011;30542;47.928;2.138;2022-09-01T05:15:28;3.08;;;2.53;;
44824;SDS011;30542;47.928;2.138;2022-09-01T05:20:29;2.85;;;2.63;;
44824;SDS011;30542;47.928;2.138;2022-09-01T05:25:36;3.47;;;3.17;;
44824;SDS011;30542;47.928;2.138;2022-09-01T05:30:38;3.30;;;2.93;;
44824;SDS011;30542;47.928;2.138;2022-09-01T05:35:40;3.63;;;3.30;;
44824;SDS011;30542;47.928;2.138;2022-09-01T05:40:44;3.97;;;3.17;;
44824;SDS011;30542;47.928;2.138;2022-09-01T05:45:53;4.68;;;3.30;;
44824;SDS011;30542;47.928;2.138;2022-09-01T05:50:55;4.30;;;3.30;;
44824;SDS011;30542;47.928;2.138;2022-09-01T05:55:56;6.57;;;3.50;;
44824;SDS011;30542;47.928;2.138;2022-09-01T06:00:58;3.83;;;3.40;;
44824;SDS011;30542;47.928;2.138;2022-09-01T06:06:04;3.60;;;3.30;;
44824;SDS011;30542;47.928;2.138;2022-09-01T06:11:08;7.68;;;3.45;;
44824;SDS011;30542;47.928;2.138;2022-09-01T06:16:16;3.38;;;3.05;;
44824;SDS011;30542;47.928;2.138;2022-09-01T06:21:19;3.72;;;2.97;;
44824;SDS011;30542;47.928;2.138;2022-09-01T06:31:27;3.35;;;3.05;;
44824;SDS011;30542;47.928;2.138;2022-09-01T06:36:36;4.10;;;3.80;;
44824;SDS011;30542;47.928;2.138;2022-09-01T06:41:39;4.43;;;4.10;;
44824;SDS011;30542;47.928;2.138;2022-09-01T06:46:39;4.63;;;4.00;;
44824;SDS011;30542;47.928;2.138;2022-09-01T06:51:40;4.80;;;4.45;;
44824;SDS011;30542;47.928;2.138;2022-09-01T06:56:40;5.10;;;4.60;;
44824;SDS011;30542;47.928;2.138;2022-09-01T07:01:41;4.40;;;4.00;;
44824;SDS011;30542;47.928;2.138;2022-09-01T07:06:41;5.80;;;4.55;;
44824;SDS011;30542;47.928;2.138;2022-09-01T07:11:42;5.55;;;4.53;;
44824;SDS011;30542;47.928;2.138;2022-09-01T07:16:42;6.63;;;4.63;;
44824;SDS011;30542;47.928;2.138;2022-09-01T07:21:45;7.47;;;4.53;;
44824;SDS011;30542;47.928;2.138;2022-09-01T07:26:46;4.50;;;4.10;;
44824;SDS011;30542;47.928;2.138;2022-09-01T07:31:50;5.85;;;4.80;;
44824;SDS011;30542;47.928;2.138;2022-09-01T07:36:52;5.10;;;4.47;;
44824;SDS011;30542;47.928;2.138;2022-09-01T07:41:55;4.88;;;4.47;;
44824;SDS011;30542;47.928;2.138;2022-09-01T07:46:57;5.70;;;5.10;;
44824;SDS011;30542;47.928;2.138;2022-09-01T07:51:57;6.97;;;4.50;;
44824;SDS011;30542;47.928;2.138;2022-09-01T07:57:00;7.55;;;5.30;;
44824;SDS011;30542;47.928;2.138;2022-09-01T08:02:01;5.45;;;4.63;;
44824;SDS011;30542;47.928;2.138;2022-09-01T08:07:04;5.60;;;4.45;;
44824;SDS011;30542;47.928;2.138;2022-09-01T08:12:05;5.87;;;4.27;;
44824;SDS011;30542;47.928;2.138;2022-09-01T08:17:06;5.40;;;4.68;;
44824;SDS011;30542;47.928;2.138;2022-09-01T08:22:07;4.95;;;4.03;;
44824;SDS011;30542;47.928;2.138;2022-09-01T08:27:07;4.90;;;4.13;;
44824;SDS011;30542;47.928;2.138;2022-09-01T08:32:08;6.60;;;3.80;;
44824;SDS011;30542;47.928;2.138;2022-09-01T08:37:10;7.03;;;4.47;;
44824;SDS011;30542;47.928;2.138;2022-09-01T08:42:27;4.67;;;4.27;;
44824;SDS011;30542;47.928;2.138;2022-09-01T08:47:30;7.47;;;4.32;;
44824;SDS011;30542;47.928;2.138;2022-09-01T08:52:35;6.85;;;4.13;;
44824;SDS011;30542;47.928;2.138;2022-09-01T08:57:38;5.57;;;4.20;;
44824;SDS011;30542;47.928;2.138;2022-09-01T09:13:18;4.10;;;3.20;;
44824;SDS011;30542;47.928;2.138;2022-09-01T09:18:37;3.60;;;3.30;;
44824;SDS011;30542;47.928;2.138;2022-09-01T09:23:44;6.15;;;3.60;;
44824;SDS011;30542;47.928;2.138;2022-09-01T09:28:47;5.35;;;3.08;;
44824;SDS011;30542;47.928;2.138;2022-09-01T09:33:49;6.07;;;3.78;;
44824;SDS011;30542;47.928;2.138;2022-09-01T09:39:11;5.27;;;3.80;;
44824;SDS011;30542;47.928;2.138;2022-09-01T09:44:25;2.92;;;2.60;;
44824;SDS011;30542;47.928;2.138;2022-09-01T09:49:30;3.42;;;3.10;;
44824;SDS011;30542;47.928;2.138;2022-09-01T09:54:33;4.00;;;3.70;;
44824;SDS011;30542;47.928;2.138;2022-09-01T09:59:37;4.00;;;3.33;;
44824;SDS011;30542;47.928;2.138;2022-09-01T10:04:41;6.30;;;3.95;;
44824;SDS011;30542;47.928;2.138;2022-09-01T10:09:41;5.43;;;3.25;;
44824;SDS011;30542;47.928;2.138;2022-09-01T10:14:59;5.83;;;3.20;;
44824;SDS011;30542;47.928;2.138;2022-09-01T10:25:09;4.20;;;3.47;;
44824;SDS011;30542;47.928;2.138;2022-09-01T10:30:24;4.78;;;2.95;;
44824;SDS011;30542;47.928;2.138;2022-09-01T10:35:30;5.13;;;3.63;;
44824;SDS011;30542;47.928;2.138;2022-09-01T10:45:37;4.13;;;3.13;;
44824;SDS011;30542;47.928;2.138;2022-09-01T10:50:39;3.47;;;3.17;;
44824;SDS011;30542;47.928;2.138;2022-09-01T10:55:40;4.20;;;3.57;;
44824;SDS011;30542;47.928;2.138;2022-09-01T11:00:45;4.00;;;3.70;;
44824;SDS011;30542;47.928;2.138;2022-09-01T11:10:59;5.13;;;4.65;;
44824;SDS011;30542;47.928;2.138;2022-09-01T11:16:26;4.55;;;4.07;;
44824;SDS011;30542;47.928;2.138;2022-09-01T11:21:28;4.60;;;4.20;;
44824;SDS011;30542;47.928;2.138;2022-09-01T11:31:39;4.72;;;4.20;;
44824;SDS011;30542;47.928;2.138;2022-09-01T11:41:57;5.20;;;3.85;;
44824;SDS011;30542;47.928;2.138;2022-09-01T11:47:04;4.45;;;3.58;;
44824;SDS011;30542;47.928;2.138;2022-09-01T11:52:07;4.90;;;3.47;;
44824;SDS011;30542;47.928;2.138;2022-09-01T11:57:22;4.60;;;3.50;;
44824;SDS011;30542;47.928;2.138;2022-09-01T12:02:25;3.63;;;3.28;;
44824;SDS011;30542;47.928;2.138;2022-09-01T12:12:39;3.08;;;2.78;;
44824;SDS011;30542;47.928;2.138;2022-09-01T12:17:40;3.60;;;3.20;;
44824;SDS011;30542;47.928;2.138;2022-09-01T12:22:41;4.80;;;3.37;;
44824;SDS011;30542;47.928;2.138;2022-09-01T12:27:41;3.38;;;3.08;;
44824;SDS011;30542;47.928;2.138;2022-09-01T12:32:42;4.75;;;3.22;;
44824;SDS011;30542;47.928;2.138;2022-09-01T12:37:43;3.17;;;2.88;;
44824;SDS011;30542;47.928;2.138;2022-09-01T12:42:51;3.50;;;3.20;;
44824;SDS011;30542;47.928;2.138;2022-09-01T12:47:52;4.43;;;3.20;;
44824;SDS011;30542;47.928;2.138;2022-09-01T12:52:56;5.57;;;2.90;;
44824;SDS011;30542;47.928;2.138;2022-09-01T12:58:04;7.40;;;3.33;;
44824;SDS011;30542;47.928;2.138;2022-09-01T13:03:12;2.78;;;2.45;;
44824;SDS011;30542;47.928;2.138;2022-09-01T13:08:17;3.78;;;2.63;;
44824;SDS011;30542;47.928;2.138;2022-09-01T13:13:20;3.47;;;2.72;;
44824;SDS011;30542;47.928;2.138;2022-09-01T13:18:23;3.28;;;2.95;;
44824;SDS011;30542;47.928;2.138;2022-09-01T13:23:24;3.50;;;2.92;;
44824;SDS011;30542;47.928;2.138;2022-09-01T13:28:25;3.50;;;3.20;;
44824;SDS011;30542;47.928;2.138;2022-09-01T13:33:26;6.03;;;2.78;;
44824;SDS011;30542;47.928;2.138;2022-09-01T13:38:27;3.30;;;2.92;;
44824;SDS011;30542;47.928;2.138;2022-09-01T13:43:27;3.63;;;2.88;;
44824;SDS011;30542;47.928;2.138;2022-09-01T13:48:28;3.40;;;3.10;;
44824;SDS011;30542;47.928;2.138;2022-09-01T13:53:28;5.03;;;3.60;;
44824;SDS011;30542;47.928;2.138;2022-09-01T13:58:29;4.53;;;3.20;;
44824;SDS011;30542;47.928;2.138;2022-09-01T14:03:29;3.23;;;2.83;;
44824;SDS011;30542;47.928;2.138;2022-09-01T14:08:31;4.00;;;3.10;;
44824;SDS011;30542;47.928;2.138;2022-09-01T14:13:32;4.15;;;3.40;;
44824;SDS011;30542;47.928;2.138;2022-09-01T14:18:34;4.40;;;3.40;;
44824;SDS011;30542;47.928;2.138;2022-09-01T14:23:35;2.95;;;2.72;;
44824;SDS011;30542;47.928;2.138;2022-09-01T14:28:36;3.70;;;3.27;;
44824;SDS011;30542;47.928;2.138;2022-09-01T14:33:38;5.60;;;3.65;;
44824;SDS011;30542;47.928;2.138;2022-09-01T14:38:40;4.07;;;3.30;;
44824;SDS011;30542;47.928;2.138;2022-09-01T14:43:40;3.77;;;3.40;;
44824;SDS011;30542;47.928;2.138;2022-09-01T14:48:42;4.25;;;3.00;;
44824;SDS011;30542;47.928;2.138;2022-09-01T14:53:42;5.60;;;3.30;;
44824;SDS011;30542;47.928;2.138;2022-09-01T14:58:43;3.07;;;2.77;;
44824;SDS011;30542;47.928;2.138;2022-09-01T15:03:47;3.53;;;3.15;;
44824;SDS011;30542;47.928;2.138;2022-09-01T15:08:47;4.57;;;3.42;;
44824;SDS011;30542;47.928;2.138;2022-09-01T15:13:48;4.78;;;3.20;;
44824;SDS011;30542;47.928;2.138;2022-09-01T15:18:51;8.02;;;3.25;;
44824;SDS011;30542;47.928;2.138;2022-09-01T15:23:51;3.45;;;2.70;;
44824;SDS011;30542;47.928;2.138;2022-09-01T15:28:53;4.95;;;3.35;;
44824;SDS011;30542;47.928;2.138;2022-09-01T15:33:55;5.32;;;3.28;;
44824;SDS011;30542;47.928;2.138;2022-09-01T15:38:56;4.15;;;2.75;;
44824;SDS011;30542;47.928;2.138;2022-09-01T15:43:58;3.10;;;2.72;;
44824;SDS011;30542;47.928;2.138;2022-09-01T15:48:59;3.22;;;2.67;;
44824;SDS011;30542;47.928;2.138;2022-09-01T15:54:07;3.30;;;2.45;;
44824;SDS011;30542;47.928;2.138;2022-09-01T15:59:10;3.17;;;2.60;;
44824;SDS011;30542;47.928;2.138;2022-09-01T16:04:12;2.67;;;2.08;;
44824;SDS011;30542;47.928;2.138;2022-09-01T16:09:14;2.63;;;2.42;;
44824;SDS011;30542;47.928;2.138;2022-09-01T16:14:14;5.67;;;2.50;;
44824;SDS011;30542;47.928;2.138;2022-09-01T16:19:30;5.13;;;3.08;;
44824;SDS011;30542;47.928;2.138;2022-09-01T16:24:38;4.05;;;2.78;;
44824;SDS011;30542;47.928;2.138;2022-09-01T16:29:47;4.75;;;2.00;;
44824;SDS011;30542;47.928;2.138;2022-09-01T16:34:50;4.25;;;2.88;;
44824;SDS011;30542;47.928;2.138;2022-09-01T16:39:55;4.90;;;2.50;;
44824;SDS011;30542;47.928;2.138;2022-09-01T16:56:24;2.70;;;2.33;;
44824;SDS011;30542;47.928;2.138;2022-09-01T17:07:13;3.63;;;1.83;;
44824;SDS011;30542;47.928;2.138;2022-09-01T17:12:52;7.30;;;2.30;;
44824;SDS011;30542;47.928;2.138;2022-09-01T17:23:24;2.60;;;1.98;;
44824;SDS011;30542;47.928;2.138;2022-09-01T17:28:34;3.13;;;1.98;;
44824;SDS011;30542;47.928;2.138;2022-09-01T17:33:55;3.35;;;1.70;;
44824;SDS011;30542;47.928;2.138;2022-09-01T17:39:52;3.05;;;2.20;;
44824;SDS011;30542;47.928;2.138;2022-09-01T17:44:44;4.72;;;2.05;;
44824;SDS011;30542;47.928;2.138;2022-09-01T17:55:20;2.70;;;1.90;;
44824;SDS011;30542;47.928;2.138;2022-09-01T18:00:45;3.95;;;1.77;;
44824;SDS011;30542;47.928;2.138;2022-09-01T18:17:07;5.70;;;1.48;;
44824;SDS011;30542;47.928;2.138;2022-09-01T18:22:15;2.40;;;1.92;;
44824;SDS011;30542;47.928;2.138;2022-09-01T18:27:19;1.33;;;1.23;;
44824;SDS011;30542;47.928;2.138;2022-09-01T18:53:44;2.53;;;1.70;;
44824;SDS011;30542;47.928;2.138;2022-09-01T19:04:30;3.53;;;2.40;;
44824;SDS011;30542;47.928;2.138;2022-09-01T19:20:03;1.70;;;1.60;;
44824;SDS011;30542;47.928;2.138;2022-09-01T19:25:14;2.75;;;2.30;;
44824;SDS011;30542;47.928;2.138;2022-09-01T19:30:39;3.33;;;1.85;;
44824;SDS011;30542;47.928;2.138;2022-09-01T19:35:44;3.05;;;2.05;;
44824;SDS011;30542;47.928;2.138;2022-09-01T19:40:47;3.75;;;2.47;;
44824;SDS011;30542;47.928;2.138;2022-09-01T19:51:25;2.90;;;2.15;;
44824;SDS011;30542;47.928;2.138;2022-09-01T20:06:58;2.30;;;2.13;;
44824;SDS011;30542;47.928;2.138;2022-09-01T20:17:41;3.38;;;1.90;;
44824;SDS011;30542;47.928;2.138;2022-09-01T20:23:01;1.98;;;1.88;;
44824;SDS011;30542;47.928;2.138;2022-09-01T20:28:51;2.58;;;1.77;;
44824;SDS011;30542;47.928;2.138;2022-09-01T20:33:59;2.90;;;2.40;;
44824;SDS011;30542;47.928;2.138;2022-09-01T20:49:53;4.13;;;1.88;;
44824;SDS011;30542;47.928;2.138;2022-09-01T20:55:07;2.47;;;2.13;;
44824;SDS011;30542;47.928;2.138;2022-09-01T21:05:35;2.78;;;1.63;;
44824;SDS011;30542;47.928;2.138;2022-09-01T21:21:14;2.83;;;1.90;;
44824;SDS011;30542;47.928;2.138;2022-09-01T21:26:15;2.67;;;2.35;;
44824;SDS011;30542;47.928;2.138;2022-09-01T21:31:16;2.28;;;1.80;;
44824;SDS011;30542;47.928;2.138;2022-09-01T21:36:18;2.00;;;1.90;;
44824;SDS011;30542;47.928;2.138;2022-09-01T21:41:18;4.40;;;2.13;;
44824;SDS011;30542;47.928;2.138;2022-09-01T21:46:18;2.17;;;2.07;;
44824;SDS011;30542;47.928;2.138;2022-09-01T21:51:19;2.37;;;2.00;;
44824;SDS011;30542;47.928;2.138;2022-09-01T21:56:19;3.13;;;1.83;;
44824;SDS011;30542;47.928;2.138;2022-09-01T22:01:20;5.10;;;1.88;;
44824;SDS011;30542;47.928;2.138;2022-09-01T22:06:20;2.38;;;2.00;;
44824;SDS011;30542;47.928;2.138;2022-09-01T22:11:22;5.35;;;1.92;;
44824;SDS011;30542;47.928;2.138;2022-09-01T22:16:22;2.47;;;1.87;;
44824;SDS011;30542;47.928;2.138;2022-09-01T22:21:23;4.32;;;1.90;;
44824;SDS011;30542;47.928;2.138;2022-09-01T22:26:25;2.22;;;2.03;;
44824;SDS011;30542;47.928;2.138;2022-09-01T22:31:29;2.28;;;1.63;;
44824;SDS011;30542;47.928;2.138;2022-09-01T22:36:35;2.42;;;2.00;;
44824;SDS011;30542;47.928;2.138;2022-09-01T22:41:38;2.37;;;1.93;;
44824;SDS011;30542;47.928;2.138;2022-09-01T22:46:39;4.15;;;1.90;;
44824;SDS011;30542;47.928;2.138;2022-09-01T22:51:41;2.60;;;1.90;;
44824;SDS011;30542;47.928;2.138;2022-09-01T22:56:41;2.55;;;2.30;;
44824;SDS011;30542;47.928;2.138;2022-09-01T23:01:43;2.35;;;2.15;;
44824;SDS011;30542;47.928;2.138;2022-09-01T23:06:47;2.05;;;1.90;;
44824;SDS011;30542;47.928;2.138;2022-09-01T23:11:49;1.83;;;1.50;;
44824;SDS011;30542;47.928;2.138;2022-09-01T23:16:50;2.28;;;2.03;;
44824;SDS011;30542;47.928;2.138;2022-09-01T23:21:51;2.35;;;1.95;;
44824;SDS011;30542;47.928;2.138;2022-09-01T23:26:52;3.10;;;2.00;;
44824;SDS011;30542;47.928;2.138;2022-09-01T23:31:52;2.47;;;1.70;;
44824;SDS011;30542;47.928;2.138;2022-09-01T23:36:53;2.07;;;1.87;;
44824;SDS011;30542;47.928;2.138;2022-09-01T23:41:53;3.07;;;2.10;;
44824;SDS011;30542;47.928;2.138;2022-09-01T23:46:54;1.93;;;1.77;;
44824;SDS011;30542;47.928;2.138;2022-09-01T23:51:54;2.05;;;1.95;;
44824;SDS011;30542;47.928;2.138;2022-09-01T23:56:54;2.20;;;1.90;;
